Buoy 45509

sailwx.info

Track history (hours):
 
Tides and Currents Weather Stations Pressure Air Temp Water Temp Dewpoint Dewpoint Depression Visibility Wind Speed Wind Dir Waves Ship Positions

Drifting buoy 45509

Last reported at 2018-Apr-27 00:06 UTC. Time now 2018-Apr-27 02:45 UTC.
Position N 44°32' W 087°59'.

Barometer 986.6 mb
Water temperature 12.6 ° C

Date/timePositionNaut miles runAvg speedWind from/ knotsBaromVisibWave heightAir tempDewpointWater temp
2018-Apr-27 00:06N 44°32' W 087°59'0 0.0 986.6 12.6
2018-Apr-27 00:00N 44°32' W 087°59'0 0.0 986.6 12.6
2018-Apr-26 18:05N 44°32' W 087°59'0 0.0 989.8 8.9
2018-Apr-26 12:05N 44°32' W 087°59'0 0.0 991.9 10.0
2018-Apr-26 12:00N 44°32' W 087°59'0 0.0 991.9 10.0
2018-Apr-26 06:05N 44°32' W 087°59'0 0.0 993.4 9.4
2018-Apr-26 06:00N 44°32' W 087°59'0 0.0 993.4 9.4
2018-Apr-26 00:06N 44°32' W 087°59'0 0.0 994.9 15.7
2018-Apr-26 00:00N 44°32' W 087°59'0 0.0 994.9 15.7
2018-Apr-25 18:00N 44°32' W 087°59'0 0.0 999.2 6.3
2018-Apr-25 12:01N 44°32' W 087°59'0 0.0 1000.8 6.9
2018-Apr-25 12:00N 44°32' W 087°59'0 0.0 1000.8 6.9
2018-Apr-25 06:05N 44°32' W 087°59'0 0.0 999.7 8.5
2018-Apr-25 06:00N 44°32' W 087°59'0 0.0 999.7 8.5
2018-Apr-25 00:05N 44°32' W 087°59'0 0.0 997.0 13.2
2018-Apr-25 00:00N 44°32' W 087°59'0 0.0 997.0 13.2
2018-Apr-24 18:05N 44°32' W 087°59'0 0.0 997.0 12.4
2018-Apr-24 18:00N 44°32' W 087°59'0 0.0 997.0 12.4
2018-Apr-24 12:05N 44°32' W 087°59'0 0.0 998.5 8.9
2018-Apr-24 12:00N 44°32' W 087°59'0 0.0 998.5 8.9
2018-Apr-24 06:05N 44°32' W 087°59'0 0.0 999.1 11.1
2018-Apr-24 06:00N 44°32' W 087°59'0 0.0 999.1 11.1
2018-Apr-24 00:01N 44°32' W 087°59'0 0.0 999.6 13.8
2018-Apr-24 00:00N 44°32' W 087°59'0 0.0 999.6 13.8
2018-Apr-23 18:05N 44°32' W 087°59'0 0.0 1002.6 10.3
2018-Apr-23 18:00N 44°32' W 087°59'0 0.0 1002.6 10.3
2018-Apr-23 12:05N 44°32' W 087°59'0 0.0 1005.0 6.7
2018-Apr-23 12:00N 44°32' W 087°59'0 0.0 1005.0 6.7
2018-Apr-23 06:05N 44°32' W 087°59'0 0.0 1004.7 8.9
2018-Apr-23 06:00N 44°32' W 087°59'0 0.0 1004.7 8.9
2018-Apr-23 00:05N 44°32' W 087°59'0 0.0 1004.9 10.8
2018-Apr-23 00:00N 44°32' W 087°59'0 0.0 1004.9 10.8
2018-Apr-22 18:05N 44°32' W 087°59'0 0.0 1007.9 4.8
2018-Apr-22 18:00N 44°32' W 087°59'0 0.0 1007.9 4.8
2018-Apr-22 12:05N 44°32' W 087°59'0 0.0 1008.0 0.5
2018-Apr-22 12:00N 44°32' W 087°59'0 0.0 1008.0 0.5
2018-Apr-22 06:01N 44°32' W 087°59'0 0.0 1007.3 2.3
2018-Apr-22 06:00N 44°32' W 087°59'0 0.0 1007.3 2.3
2018-Apr-22 00:00N 44°32' W 087°59'0 0.0 1006.5 0.6
2018-Apr-21 18:05N 44°32' W 087°59'0 0.0 1008.6 0.6
2018-Apr-21 18:00N 44°32' W 087°59'0 0.0 1008.6 0.6
2018-Apr-21 12:00N 44°32' W 087°59'0 0.0 1009.6 0.2
2018-Apr-21 06:00N 44°32' W 087°59'0 0.0 1009.5 0.2
2018-Apr-21 00:05N 44°32' W 087°59'0 0.0 1008.7 0.4
2018-Apr-21 00:00N 44°32' W 087°59'0 0.0 1008.7 0.4
2018-Apr-20 18:05N 44°32' W 087°59'0 0.0 1011.0 0.5
2018-Apr-20 18:00N 44°32' W 087°59'0 0.0 1011.0 0.5
2018-Apr-20 12:05N 44°32' W 087°59'0 0.0 1010.8 0.6
2018-Apr-20 12:00N 44°32' W 087°59'0 0.0 1010.8 0.6
2018-Apr-20 06:05N 44°32' W 087°59'0 0.0 1008.8 0.1
2018-Apr-20 06:00N 44°32' W 087°59'0 0.0 1008.8 0.1
2018-Apr-20 00:05N 44°32' W 087°59'0 0.0 1007.1 1.4
2018-Apr-20 00:00N 44°32' W 087°59'0 0.0 1007.1 1.4
2018-Apr-19 18:00N 44°32' W 087°59'0 0.0 1006.1 0.2
2018-Apr-19 12:00N 44°32' W 087°59'0 0.0 1003.1 0.8
2018-Apr-19 06:00N 44°32' W 087°59'0 0.0 997.3 0.4
2018-Apr-19 00:05N 44°32' W 087°59'0 0.0 993.7 -0.0
2018-Apr-19 00:00N 44°32' W 087°59'0 0.0 993.7 -0.0
2018-Apr-18 18:00N 44°32' W 087°59'0 0.0 992.2 0.3
2018-Apr-18 12:05N 44°32' W 087°59'0 0.0 992.1 0.1
2018-Apr-18 12:00N 44°32' W 087°59'0 0.0 992.1 0.1
2018-Apr-18 06:00N 44°32' W 087°59'0 0.0 994.1 -0.1
2018-Apr-18 00:00N 44°32' W 087°59'0 0.0 991.6 0.1
2018-Apr-17 18:05N 44°32' W 087°59'0 0.0 989.8 -0.0
2018-Apr-17 18:00N 44°32' W 087°59'0 0.0 989.8 -0.0
2018-Apr-17 12:00N 44°32' W 087°59'0 0.0 988.7 0.1
2018-Apr-17 06:00N 44°32' W 087°59'   988.4 -0.0
Track history (hours):
 
Tides and Currents Weather Stations Pressure Air Temp Water Temp Dewpoint Dewpoint Depression Visibility Wind Speed Wind Dir Waves Ship Positions

Drifting buoy 45509

Last reported at 2018-Apr-27 00:06 UTC. Time now 2018-Apr-27 02:45 UTC.
Position N 44°32' W 087°59'.

Barometer 986.6 mb
Water temperature 12.6 ° C

Date/timePositionNaut miles runAvg speedWind from/ knotsBaromVisibWave heightAir tempDewpointWater temp
2018-Apr-27 00:06N 44°32' W 087°59'0 0.0 986.6 12.6
2018-Apr-27 00:00N 44°32' W 087°59'0 0.0 986.6 12.6
2018-Apr-26 18:05N 44°32' W 087°59'0 0.0 989.8 8.9
2018-Apr-26 12:05N 44°32' W 087°59'0 0.0 991.9 10.0
2018-Apr-26 12:00N 44°32' W 087°59'0 0.0 991.9 10.0
2018-Apr-26 06:05N 44°32' W 087°59'0 0.0 993.4 9.4
2018-Apr-26 06:00N 44°32' W 087°59'0 0.0 993.4 9.4
2018-Apr-26 00:06N 44°32' W 087°59'0 0.0 994.9 15.7
2018-Apr-26 00:00N 44°32' W 087°59'0 0.0 994.9 15.7
2018-Apr-25 18:00N 44°32' W 087°59'0 0.0 999.2 6.3
2018-Apr-25 12:01N 44°32' W 087°59'0 0.0 1000.8 6.9
2018-Apr-25 12:00N 44°32' W 087°59'0 0.0 1000.8 6.9
2018-Apr-25 06:05N 44°32' W 087°59'0 0.0 999.7 8.5
2018-Apr-25 06:00N 44°32' W 087°59'0 0.0 999.7 8.5
2018-Apr-25 00:05N 44°32' W 087°59'0 0.0 997.0 13.2
2018-Apr-25 00:00N 44°32' W 087°59'0 0.0 997.0 13.2
2018-Apr-24 18:05N 44°32' W 087°59'0 0.0 997.0 12.4
2018-Apr-24 18:00N 44°32' W 087°59'0 0.0 997.0 12.4
2018-Apr-24 12:05N 44°32' W 087°59'0 0.0 998.5 8.9
2018-Apr-24 12:00N 44°32' W 087°59'0 0.0 998.5 8.9
2018-Apr-24 06:05N 44°32' W 087°59'0 0.0 999.1 11.1
2018-Apr-24 06:00N 44°32' W 087°59'0 0.0 999.1 11.1
2018-Apr-24 00:01N 44°32' W 087°59'0 0.0 999.6 13.8
2018-Apr-24 00:00N 44°32' W 087°59'0 0.0 999.6 13.8
2018-Apr-23 18:05N 44°32' W 087°59'0 0.0 1002.6 10.3
2018-Apr-23 18:00N 44°32' W 087°59'0 0.0 1002.6 10.3
2018-Apr-23 12:05N 44°32' W 087°59'0 0.0 1005.0 6.7
2018-Apr-23 12:00N 44°32' W 087°59'0 0.0 1005.0 6.7
2018-Apr-23 06:05N 44°32' W 087°59'0 0.0 1004.7 8.9
2018-Apr-23 06:00N 44°32' W 087°59'0 0.0 1004.7 8.9
2018-Apr-23 00:05N 44°32' W 087°59'0 0.0 1004.9 10.8
2018-Apr-23 00:00N 44°32' W 087°59'0 0.0 1004.9 10.8
2018-Apr-22 18:05N 44°32' W 087°59'0 0.0 1007.9 4.8
2018-Apr-22 18:00N 44°32' W 087°59'0 0.0 1007.9 4.8
2018-Apr-22 12:05N 44°32' W 087°59'0 0.0 1008.0 0.5
2018-Apr-22 12:00N 44°32' W 087°59'0 0.0 1008.0 0.5
2018-Apr-22 06:01N 44°32' W 087°59'0 0.0 1007.3 2.3
2018-Apr-22 06:00N 44°32' W 087°59'0 0.0 1007.3 2.3
2018-Apr-22 00:00N 44°32' W 087°59'0 0.0 1006.5 0.6
2018-Apr-21 18:05N 44°32' W 087°59'0 0.0 1008.6 0.6
2018-Apr-21 18:00N 44°32' W 087°59'0 0.0 1008.6 0.6
2018-Apr-21 12:00N 44°32' W 087°59'0 0.0 1009.6 0.2
2018-Apr-21 06:00N 44°32' W 087°59'0 0.0 1009.5 0.2
2018-Apr-21 00:05N 44°32' W 087°59'0 0.0 1008.7 0.4
2018-Apr-21 00:00N 44°32' W 087°59'0 0.0 1008.7 0.4
2018-Apr-20 18:05N 44°32' W 087°59'0 0.0 1011.0 0.5
2018-Apr-20 18:00N 44°32' W 087°59'0 0.0 1011.0 0.5
2018-Apr-20 12:05N 44°32' W 087°59'0 0.0 1010.8 0.6
2018-Apr-20 12:00N 44°32' W 087°59'0 0.0 1010.8 0.6
2018-Apr-20 06:05N 44°32' W 087°59'0 0.0 1008.8 0.1
2018-Apr-20 06:00N 44°32' W 087°59'0 0.0 1008.8 0.1
2018-Apr-20 00:05N 44°32' W 087°59'0 0.0 1007.1 1.4
2018-Apr-20 00:00N 44°32' W 087°59'0 0.0 1007.1 1.4
2018-Apr-19 18:00N 44°32' W 087°59'0 0.0 1006.1 0.2
2018-Apr-19 12:00N 44°32' W 087°59'0 0.0 1003.1 0.8
2018-Apr-19 06:00N 44°32' W 087°59'0 0.0 997.3 0.4
2018-Apr-19 00:05N 44°32' W 087°59'0 0.0 993.7 -0.0
2018-Apr-19 00:00N 44°32' W 087°59'0 0.0 993.7 -0.0
2018-Apr-18 18:00N 44°32' W 087°59'0 0.0 992.2 0.3
2018-Apr-18 12:05N 44°32' W 087°59'0 0.0 992.1 0.1
2018-Apr-18 12:00N 44°32' W 087°59'0 0.0 992.1 0.1
2018-Apr-18 06:00N 44°32' W 087°59'0 0.0 994.1 -0.1
2018-Apr-18 00:00N 44°32' W 087°59'0 0.0 991.6 0.1
2018-Apr-17 18:05N 44°32' W 087°59'0 0.0 989.8 -0.0
2018-Apr-17 18:00N 44°32' W 087°59'0 0.0 989.8 -0.0
2018-Apr-17 12:00N 44°32' W 087°59'0 0.0 988.7 0.1
2018-Apr-17 06:00N 44°32' W 087°59'   988.4 -0.0

Dump ship's entire track history